Skip to main content

NOAA/GLERL Met Station at Chicago, IL

Previous 3 Hours (2 minute increments)
See also Previous 5 Days (top of hour)
Jump down to Data
Switch to [English][Metric]
Zoom: Click and drag, Pan: shift-click and drag, Unzoom: double-click, Unzoom All




See also 1-day windrose plot


NOAA/GLERL Met Station at Chicago, IL

Previous 3 Hours (2 minute increments)
See also Previous 5 Days (top of hour only)
Jump up to Graphs
Switch to [English][Metric]
                  Wind  Wind  Wind   Air   Dew   Rel
                   Spd   Gst   Dir  Temp    Pt   Hum
YYYY-MM-DD   CDT   kts   kts   deg     F     F     %
2017-10-19 11:06   2.9   3.7   348  60.3  32.7  35.0
2017-10-19 11:04   3.3   3.5   352  60.3  31.5  33.3
2017-10-19 11:02   3.7   3.9   352  60.3  29.9  31.2
2017-10-19 11:00   3.7   4.3   351  60.3  30.7  32.3
2017-10-19 10:58   2.7   4.1   345  60.3  32.1  34.2
2017-10-19 10:56   2.7   3.1   339  60.3  32.1  34.1
2017-10-19 10:54   2.5   2.9   354  60.1  30.9  32.7
2017-10-19 10:52   2.1   2.7   346  60.1  34.4  37.7
2017-10-19 10:50   2.7   3.1   345  59.9  35.2  39.2
2017-10-19 10:48   2.9   3.3   338  59.9  35.3  39.4
2017-10-19 10:46   3.1   3.5   334  59.9  35.6  39.8
2017-10-19 10:44   3.3   3.7   332  60.1  35.6  39.5
2017-10-19 10:42   3.3   3.7   340  59.9  33.4  36.4
2017-10-19 10:40   3.7   4.3   337  59.9  34.7  38.4
2017-10-19 10:38   4.1   4.7   338  59.9  34.2  37.7
2017-10-19 10:36   5.1   5.2   339  59.9  33.1  36.0
2017-10-19 10:34   5.6   6.6   342  59.9  32.0  34.4
2017-10-19 10:32   5.8   6.4   340  59.9  31.1  33.2
2017-10-19 10:30   6.0   6.4   336  59.9  29.9  31.6
2017-10-19 10:28   6.2   6.8   337  59.7  29.4  31.2
2017-10-19 10:26   6.2   6.6   339  59.7  31.7  34.3
2017-10-19 10:24   6.0   6.6   332  59.7  32.7  35.7
2017-10-19 10:22   5.2   5.6   329  59.7  32.6  35.5
2017-10-19 10:20   5.6   6.8   326  59.7  32.1  34.8
2017-10-19 10:18   6.8   7.4   327  59.7  33.2  36.4
2017-10-19 10:16   6.0   7.0   324  59.5  34.5  38.6
2017-10-19 10:14   5.2   5.6   330  59.5  34.5  38.6
2017-10-19 10:12   6.4   7.4   335  59.5  32.6  35.8
2017-10-19 10:10   6.8   7.6   332  59.5  34.7  38.9
2017-10-19 10:08   6.0   6.4   330  59.5  35.5  40.2
2017-10-19 10:06   5.8   6.0   323  59.5  35.7  40.5
2017-10-19 10:04   6.0   6.4   326  59.5  34.0  37.9
2017-10-19 10:02   6.4   6.8   323  59.5  35.9  40.8
2017-10-19 10:00   6.0   6.6   325  59.5  37.1  42.8
2017-10-19 09:58   5.8   6.4   325  59.5  35.6  40.4
2017-10-19 09:56   6.2   6.8   325  59.5  35.0  39.4
2017-10-19 09:54   7.4   8.2   327  59.4  34.8  39.4
2017-10-19 09:52   6.8   8.0   325  59.4  36.4  41.9
2017-10-19 09:50   6.4   7.0   323  59.4  38.1  44.9
2017-10-19 09:48   6.6   7.0   328  59.4  37.0  42.9
2017-10-19 09:46   6.8   7.4   333  59.4  35.7  40.7
2017-10-19 09:44   6.2   7.4   323  59.4  37.0  43.0
2017-10-19 09:42   6.2   7.4   322  59.4  35.6  40.6
2017-10-19 09:40   6.4   7.4   325  59.4  36.0  41.2
2017-10-19 09:38   6.2   7.6   319  59.4  37.7  44.2
2017-10-19 09:36   6.6   7.2   322  59.4  36.8  42.6
2017-10-19 09:34   7.4   8.2   327  59.4  36.3  41.8
2017-10-19 09:32   7.0   7.6   324  59.2  39.8  48.2
2017-10-19 09:30   6.8   7.6   318  59.2  38.6  46.0
2017-10-19 09:28   7.0   7.8   324  59.2  38.9  46.5
2017-10-19 09:26   7.4   8.0   327  59.2  37.5  44.0
2017-10-19 09:24   6.6   7.4   319  59.0  39.1  47.3
2017-10-19 09:22   7.0   7.8   323  59.0  39.0  47.1
2017-10-19 09:20   6.8   7.8   326  59.2  38.4  45.7
2017-10-19 09:18   6.8   7.6   324  59.0  39.1  47.2
2017-10-19 09:16   7.4   8.7   327  59.0  39.5  48.0
2017-10-19 09:14   7.4   7.8   320  58.8  39.7  48.6
2017-10-19 09:12   7.4   8.4   321  58.8  39.5  48.3
2017-10-19 09:10   7.6   8.7   318  58.8  40.3  49.8
2017-10-19 09:08   8.2   9.3   324  58.8  39.7  48.7
2017-10-19 09:06   8.2   9.1   320  58.8  40.4  50.1
2017-10-19 09:04   8.0   8.7   320  58.8  38.9  47.2
2017-10-19 09:02   7.6   8.4   324  58.8  39.2  47.8
2017-10-19 09:00   7.8   8.9   320  58.8  39.8  48.8
2017-10-19 08:58   8.2   8.7   322  58.8  39.8  48.8
2017-10-19 08:56   7.8   8.9   323  58.6  40.1  49.7
2017-10-19 08:54   8.2   9.3   328  58.6  39.8  49.1
2017-10-19 08:52   8.2   8.7   323  58.6  40.2  50.0
2017-10-19 08:50   8.2   8.7   321  58.6  40.0  49.5
2017-10-19 08:48   8.2   8.7   316  58.5  40.0  49.8
2017-10-19 08:46   8.4   8.7   318  58.5  41.6  53.0
2017-10-19 08:44   7.6   8.4   318  58.5  41.0  51.9
2017-10-19 08:42   8.4   8.9   317  58.5  40.6  51.0
2017-10-19 08:40   8.0   8.9   319  58.5  40.7  51.2
2017-10-19 08:38   8.7   9.7   316  58.5  39.5  49.0
2017-10-19 08:36   8.2   8.9   316  58.5  39.9  49.6
2017-10-19 08:34   8.6   9.3   318  58.5  39.6  49.2
2017-10-19 08:32   8.2   8.7   313  58.5  41.5  52.9
2017-10-19 08:30   8.0   8.7   315  58.5  41.7  53.4
2017-10-19 08:28   8.4   9.5   310  58.5  40.5  50.8
2017-10-19 08:26   8.7   9.7   311  58.5  40.6  51.0
2017-10-19 08:24   8.7   9.5   308  58.3  40.4  51.0
2017-10-19 08:22   8.6   9.5   313  58.5  41.0  51.9
2017-10-19 08:20   9.1  10.3   314  58.5  40.7  51.2
2017-10-19 08:18   8.9  10.1   313  58.5  41.4  52.6
2017-10-19 08:16   9.1  10.1   314  58.5  40.4  50.6
2017-10-19 08:14   8.6   9.9   314  58.5  41.4  52.6
2017-10-19 08:12   8.7  10.3   317  58.5  41.7  53.4
2017-10-19 08:10   8.6   9.9   313  58.3  40.9  52.1
2017-10-19 08:08   9.7  10.7   312  58.5  41.4  52.6
2017-10-19 08:06  10.3  11.3   318  58.5  40.6  51.0